createdAt,value
2022-08-26T00:02:20.717Z,45.61
2022-08-26T00:04:50.992Z,45.41
2022-08-26T00:07:20.709Z,45.53
2022-08-26T00:09:54.498Z,45.01
2022-08-26T00:12:27.895Z,45.18
2022-08-26T00:15:08.139Z,45.44
2022-08-26T00:17:40.394Z,45.85
2022-08-26T00:20:12.575Z,46.40
2022-08-26T00:22:43.632Z,46.23
2022-08-26T00:25:17.969Z,46.40
2022-08-26T00:27:48.205Z,46.47
2022-08-26T00:30:22.910Z,46.70
2022-08-26T00:32:54.209Z,46.55
2022-08-26T00:35:25.263Z,46.87
2022-08-26T00:37:57.778Z,47.01
2022-08-26T00:40:32.540Z,47.42
2022-08-26T00:43:02.990Z,47.13
2022-08-26T00:45:45.177Z,47.05
2022-08-26T00:48:17.137Z,47.22
2022-08-26T00:50:53.143Z,47.33
2022-08-26T00:53:26.392Z,47.48
2022-08-26T00:56:03.716Z,47.15
2022-08-26T00:58:35.106Z,47.06
2022-08-26T01:01:05.220Z,46.96
2022-08-26T01:03:36.726Z,46.88
2022-08-26T01:06:12.497Z,46.48
2022-08-26T01:08:43.182Z,46.95
2022-08-26T01:11:16.288Z,47.29
2022-08-26T01:13:47.489Z,47.27
2022-08-26T01:16:18.661Z,47.19
2022-08-26T01:18:50.564Z,47.13
2022-08-26T01:21:26.170Z,47.33
2022-08-26T01:23:59.389Z,47.57
2022-08-26T01:26:31.261Z,47.81
2022-08-26T01:29:03.509Z,48.06
2022-08-26T01:31:39.079Z,48.45
2022-08-26T01:34:11.299Z,48.50
2022-08-26T01:36:41.346Z,48.84
2022-08-26T01:39:14.482Z,48.92
2022-08-26T01:41:44.291Z,49.60
2022-08-26T01:44:21.853Z,49.39
2022-08-26T01:46:52.956Z,49.83
2022-08-26T01:49:23.973Z,50.33
2022-08-26T01:51:58.359Z,50.47
2022-08-26T01:54:30.882Z,50.86
2022-08-26T01:57:00.539Z,50.55
2022-08-26T01:59:32.594Z,51.32
2022-08-26T02:02:02.514Z,51.42
2022-08-26T02:04:35.189Z,51.83
2022-08-26T02:07:07.340Z,52.01
2022-08-26T02:09:41.213Z,52.01
2022-08-26T02:12:12.183Z,51.87
2022-08-26T02:14:44.561Z,52.06
2022-08-26T02:17:15.349Z,52.36
2022-08-26T02:19:51.961Z,52.70
2022-08-26T02:22:24.697Z,53.03
2022-08-26T02:24:59.222Z,53.22
2022-08-26T02:27:32.836Z,53.04
2022-08-26T02:30:03.820Z,52.87
2022-08-26T02:32:35.095Z,53.08
2022-08-26T02:35:05.150Z,53.06
2022-08-26T02:37:35.557Z,53.38
2022-08-26T02:40:10.239Z,54.10
2022-08-26T02:42:40.170Z,54.36
2022-08-26T02:45:13.368Z,54.22
2022-08-26T02:47:46.801Z,54.52
2022-08-26T02:50:16.680Z,54.52
2022-08-26T02:52:46.411Z,55.19
2022-08-26T02:55:19.668Z,55.48
2022-08-26T02:57:49.691Z,55.21
2022-08-26T03:00:19.933Z,55.58
2022-08-26T03:02:50.309Z,56.05
2022-08-26T03:05:22.137Z,55.74
2022-08-26T03:07:53.990Z,55.93
2022-08-26T03:10:26.556Z,56.09
2022-08-26T03:12:56.934Z,56.43
2022-08-26T03:15:27.771Z,56.70
2022-08-26T03:17:58.654Z,56.44
2022-08-26T03:20:29.095Z,56.76
2022-08-26T03:22:58.775Z,56.31
2022-08-26T03:25:31.301Z,56.49
2022-08-26T03:28:01.124Z,57.01
2022-08-26T03:30:45.039Z,56.84
2022-08-26T03:33:16.322Z,57.26
2022-08-26T03:35:47.881Z,57.54
2022-08-26T03:38:21.517Z,58.13
2022-08-26T03:40:56.318Z,57.90
2022-08-26T03:43:27.631Z,58.11
2022-08-26T03:45:57.314Z,58.10
2022-08-26T03:48:27.282Z,58.01
2022-08-26T03:50:56.981Z,58.59
2022-08-26T03:53:27.218Z,58.62
2022-08-26T03:56:00.216Z,58.50
2022-08-26T03:58:31.076Z,58.02
2022-08-26T04:01:00.972Z,57.81
2022-08-26T04:03:43.392Z,57.46
2022-08-26T04:06:13.333Z,56.78
2022-08-26T04:08:43.401Z,57.03
2022-08-26T04:11:19.586Z,56.73
2022-08-26T04:13:50.117Z,57.09
2022-08-26T04:16:21.117Z,56.60
2022-08-26T04:18:52.728Z,57.01
2022-08-26T04:21:22.677Z,56.66
2022-08-26T04:23:52.941Z,56.60
2022-08-26T04:26:26.130Z,56.37
2022-08-26T04:28:57.042Z,57.00
2022-08-26T04:31:26.760Z,56.90
2022-08-26T04:34:00.623Z,56.74
2022-08-26T04:36:30.324Z,56.92
2022-08-26T04:39:00.278Z,56.82
2022-08-26T04:41:33.116Z,57.05
2022-08-26T04:44:02.828Z,57.59
2022-08-26T04:46:32.899Z,57.17
2022-08-26T04:49:02.633Z,57.36
2022-08-26T04:51:33.402Z,57.54
2022-08-26T04:54:03.195Z,57.80
2022-08-26T04:56:40.418Z,57.78
2022-08-26T04:59:16.691Z,58.04
2022-08-26T05:01:48.890Z,58.45
2022-08-26T05:04:20.134Z,58.57
2022-08-26T05:06:49.921Z,58.18
2022-08-26T05:09:20.175Z,58.57
2022-08-26T05:11:52.592Z,58.92
2022-08-26T05:14:23.261Z,58.73
2022-08-26T05:16:54.037Z,59.10
2022-08-26T05:19:23.946Z,58.98
2022-08-26T05:21:54.239Z,58.93
2022-08-26T05:24:24.731Z,59.84
2022-08-26T05:26:57.293Z,59.97
2022-08-26T05:29:26.890Z,61.07
2022-08-26T05:31:56.503Z,61.30
2022-08-26T05:34:30.107Z,62.00
2022-08-26T05:37:00.378Z,62.69
2022-08-26T05:39:30.006Z,63.20
2022-08-26T05:42:04.137Z,63.50
2022-08-26T05:44:53.632Z,64.15
2022-08-26T05:47:23.367Z,63.93
2022-08-26T05:49:53.041Z,64.15
2022-08-26T05:52:25.878Z,64.52
2022-08-26T05:54:55.646Z,64.56
2022-08-26T05:57:27.895Z,64.82
2022-08-26T05:59:58.055Z,65.28
2022-08-26T06:02:28.524Z,65.18
2022-08-26T06:04:58.220Z,65.30
2022-08-26T06:07:47.869Z,65.13
2022-08-26T06:10:33.476Z,65.62
2022-08-26T06:13:11.549Z,65.48
2022-08-26T06:15:45.595Z,65.95
2022-08-26T06:18:16.855Z,65.52
2022-08-26T06:20:56.913Z,66.07
2022-08-26T06:23:40.510Z,65.66
2022-08-26T06:26:11.032Z,65.88
2022-08-26T06:28:45.537Z,65.81
2022-08-26T06:31:15.926Z,66.34
2022-08-26T06:33:46.253Z,66.24
2022-08-26T06:36:20.579Z,66.03
2022-08-26T06:38:51.349Z,65.76
2022-08-26T06:41:22.767Z,65.75
2022-08-26T06:43:55.091Z,65.88
2022-08-26T06:46:26.053Z,65.83
2022-08-26T06:48:58.187Z,65.84
2022-08-26T06:51:29.718Z,65.22
2022-08-26T06:54:02.016Z,65.38
2022-08-26T06:56:36.113Z,65.48
2022-08-26T06:59:08.970Z,65.00
2022-08-26T07:01:43.033Z,65.09
2022-08-26T07:04:15.536Z,65.31
2022-08-26T07:06:48.892Z,65.33
2022-08-26T07:09:19.520Z,65.56
2022-08-26T07:11:49.278Z,65.62
2022-08-26T07:14:22.090Z,65.35
2022-08-26T07:16:52.379Z,65.19
2022-08-26T07:19:31.210Z,65.34
2022-08-26T07:22:02.392Z,64.90
2022-08-26T07:24:35.144Z,64.61
2022-08-26T07:27:06.595Z,63.80
2022-08-26T07:29:39.710Z,63.92
2022-08-26T07:32:09.852Z,63.67
2022-08-26T07:34:40.172Z,63.31
2022-08-26T07:37:11.685Z,62.97
2022-08-26T07:39:43.240Z,63.07
2022-08-26T07:42:15.713Z,63.07
2022-08-26T07:44:50.751Z,62.94
2022-08-26T07:47:25.716Z,62.44
2022-08-26T07:49:57.413Z,62.88
2022-08-26T07:52:28.088Z,62.66
2022-08-26T07:54:58.455Z,62.08
2022-08-26T07:57:28.351Z,62.06
2022-08-26T08:00:00.693Z,62.09
2022-08-26T08:02:31.685Z,61.71
2022-08-26T08:05:01.799Z,62.17
2022-08-26T08:07:45.092Z,62.19
2022-08-26T08:10:17.040Z,62.23
2022-08-26T08:12:47.031Z,62.29
2022-08-26T08:15:21.847Z,62.04
2022-08-26T08:17:51.668Z,62.08
2022-08-26T08:20:23.023Z,61.88
2022-08-26T08:22:53.028Z,61.86
2022-08-26T08:25:24.166Z,61.40
2022-08-26T08:27:53.907Z,61.21
2022-08-26T08:30:26.622Z,60.96
2022-08-26T08:32:56.821Z,60.76
2022-08-26T08:35:27.561Z,60.36
2022-08-26T08:37:57.317Z,60.50
2022-08-26T08:40:29.177Z,60.35
2022-08-26T08:43:02.042Z,60.24
2022-08-26T08:45:37.110Z,60.31
2022-08-26T08:48:09.117Z,60.43
2022-08-26T08:50:45.855Z,59.77
2022-08-26T08:53:18.161Z,60.67
2022-08-26T08:55:54.742Z,60.32
2022-08-26T08:58:28.310Z,60.68
2022-08-26T09:01:04.718Z,60.73
2022-08-26T09:03:50.227Z,60.87
2022-08-26T09:06:20.546Z,60.97
2022-08-26T09:08:52.024Z,60.80
2022-08-26T09:11:23.181Z,60.56
2022-08-26T09:13:54.512Z,61.04
2022-08-26T09:16:31.286Z,60.88
2022-08-26T09:19:14.594Z,60.89
2022-08-26T09:21:53.342Z,60.82
2022-08-26T09:24:23.154Z,60.96
2022-08-26T09:26:59.243Z,60.29
2022-08-26T09:29:30.894Z,60.51
2022-08-26T09:35:01.369Z,59.77
2022-08-26T09:37:40.275Z,60.15
2022-08-26T09:40:22.481Z,59.74
2022-08-26T09:43:09.827Z,59.56
2022-08-26T09:45:41.448Z,59.75
2022-08-26T09:48:32.661Z,59.50
2022-08-26T09:51:09.831Z,59.67
2022-08-26T09:53:53.968Z,59.41
2022-08-26T09:56:28.554Z,58.63
2022-08-26T09:58:59.333Z,58.34
2022-08-26T10:01:33.452Z,58.27
2022-08-26T10:04:10.990Z,57.61
2022-08-26T10:06:46.561Z,57.14
2022-08-26T10:09:19.542Z,56.84
2022-08-26T10:11:52.007Z,56.92
2022-08-26T10:14:25.491Z,57.11
2022-08-26T10:16:58.068Z,56.77
2022-08-26T10:19:55.577Z,56.78
2022-08-26T10:22:26.970Z,56.98
2022-08-26T10:25:00.514Z,56.74
2022-08-26T10:27:37.558Z,56.55
2022-08-26T10:30:13.997Z,56.65
2022-08-26T10:32:48.121Z,56.98
2022-08-26T10:35:19.726Z,56.57
2022-08-26T10:37:56.466Z,56.66
2022-08-26T10:40:28.958Z,56.62
2022-08-26T10:43:02.003Z,56.83
2022-08-26T10:45:41.255Z,57.05
2022-08-26T10:48:14.921Z,57.27
2022-08-26T10:50:47.572Z,57.26
2022-08-26T10:53:24.941Z,57.45
2022-08-26T10:56:00.164Z,56.87
2022-08-26T10:58:44.599Z,57.38
2022-08-26T11:01:28.918Z,57.09
2022-08-26T11:04:06.498Z,56.78
2022-08-26T11:06:37.169Z,56.64
2022-08-26T11:09:11.454Z,56.82
2022-08-26T11:11:48.253Z,56.29
2022-08-26T11:14:41.120Z,55.93
2022-08-26T11:17:53.331Z,55.47
2022-08-26T11:20:35.588Z,54.72
2022-08-26T11:23:37.614Z,54.25
2022-08-26T11:26:37.867Z,54.27
2022-08-26T11:29:13.907Z,54.63
2022-08-26T11:31:58.537Z,54.46
2022-08-26T11:34:55.042Z,54.36
2022-08-26T11:37:32.506Z,54.70
2022-08-26T11:40:04.141Z,54.55
2022-08-26T11:42:40.611Z,54.55
2022-08-26T11:45:20.877Z,54.30
2022-08-26T11:47:50.561Z,54.47
2022-08-26T11:50:23.410Z,54.38
2022-08-26T11:53:01.790Z,54.21
2022-08-26T11:55:32.692Z,53.67
2022-08-26T11:58:07.670Z,53.58
2022-08-26T12:00:53.213Z,53.28
2022-08-26T12:03:25.610Z,53.65
2022-08-26T12:05:57.336Z,53.25
2022-08-26T12:08:31.190Z,53.67
2022-08-26T12:11:06.996Z,53.49
2022-08-26T12:13:39.536Z,53.80
2022-08-26T12:16:09.746Z,54.04
2022-08-26T12:18:41.634Z,53.90
2022-08-26T12:21:16.844Z,53.06
2022-08-26T12:23:50.092Z,53.01
2022-08-26T12:26:25.743Z,52.44
2022-08-26T12:29:00.900Z,52.44
2022-08-26T12:31:33.953Z,52.08
2022-08-26T12:34:06.439Z,52.40
2022-08-26T12:36:49.649Z,51.43
2022-08-26T12:39:30.453Z,51.12
2022-08-26T12:42:01.293Z,51.00
2022-08-26T12:44:38.964Z,50.50
2022-08-26T12:47:11.980Z,50.57
2022-08-26T12:49:43.040Z,50.58
2022-08-26T12:52:30.067Z,50.31
2022-08-26T12:55:02.917Z,50.63
2022-08-26T12:57:35.217Z,51.18
2022-08-26T13:00:35.465Z,50.75
2022-08-26T13:03:05.426Z,50.71
2022-08-26T13:05:37.972Z,50.98
2022-08-26T13:08:18.690Z,50.98
2022-08-26T13:10:49.980Z,51.10
2022-08-26T13:13:19.671Z,50.68
2022-08-26T13:15:52.531Z,50.64
2022-08-26T13:18:22.200Z,50.19
2022-08-26T13:20:51.852Z,49.48
2022-08-26T13:23:22.039Z,49.48
2022-08-26T13:25:51.932Z,49.51
2022-08-26T13:28:21.935Z,49.43
2022-08-26T13:30:54.212Z,49.36
2022-08-26T13:33:23.909Z,49.36
2022-08-26T13:35:54.835Z,49.61
2022-08-26T13:38:33.752Z,49.86
2022-08-26T13:41:04.811Z,49.36
2022-08-26T13:43:35.666Z,49.64
2022-08-26T13:46:08.426Z,49.94
2022-08-26T13:48:38.277Z,49.99
2022-08-26T13:51:10.823Z,50.05
2022-08-26T13:53:41.546Z,49.88
2022-08-26T13:56:11.768Z,50.61
2022-08-26T13:58:41.458Z,51.10
2022-08-26T14:01:13.931Z,51.62
2022-08-26T14:03:43.948Z,51.86
2022-08-26T14:06:13.728Z,51.95
2022-08-26T14:08:44.126Z,52.39
2022-08-26T14:11:14.160Z,52.30
2022-08-26T14:13:43.829Z,52.42
2022-08-26T14:16:23.807Z,52.35
2022-08-26T14:18:53.452Z,52.57
2022-08-26T14:21:23.327Z,52.53
2022-08-26T14:23:52.965Z,52.57
2022-08-26T14:26:29.102Z,52.71
2022-08-26T14:28:59.795Z,52.96
2022-08-26T14:31:33.080Z,52.78
2022-08-26T14:34:04.641Z,52.20
2022-08-26T14:36:35.276Z,52.28
2022-08-26T14:39:07.043Z,52.38
2022-08-26T14:41:54.610Z,52.59
2022-08-26T14:44:26.512Z,52.40
2022-08-26T14:46:59.399Z,52.48
2022-08-26T14:49:31.211Z,52.67
2022-08-26T14:52:01.279Z,52.78
2022-08-26T14:54:29.519Z,53.36
2022-08-26T14:57:01.051Z,53.67
2022-08-26T14:59:32.279Z,54.28
2022-08-26T15:02:04.664Z,54.24
2022-08-26T15:04:34.716Z,54.64
2022-08-26T15:07:04.746Z,54.66
2022-08-26T15:09:37.394Z,54.80
2022-08-26T15:12:07.995Z,54.64
2022-08-26T15:14:37.654Z,55.01
2022-08-26T15:17:10.086Z,55.56
2022-08-26T15:19:39.749Z,55.42
2022-08-26T15:22:09.377Z,55.84
2022-08-26T15:24:39.096Z,55.98
2022-08-26T15:27:09.083Z,55.87
2022-08-26T15:29:39.080Z,55.73
2022-08-26T15:32:11.377Z,55.01
2022-08-26T15:34:41.027Z,54.50
2022-08-26T15:37:10.865Z,54.70
2022-08-26T15:39:41.054Z,54.47
2022-08-26T15:42:11.110Z,54.38
2022-08-26T15:44:40.752Z,54.61
2022-08-26T15:47:13.241Z,54.86
2022-08-26T15:49:42.891Z,54.46
2022-08-26T15:52:12.528Z,54.77
2022-08-26T15:54:42.292Z,55.12
2022-08-26T15:57:15.362Z,55.67
2022-08-26T15:59:46.281Z,55.52
2022-08-26T16:02:18.674Z,56.08
2022-08-26T16:04:48.304Z,55.95
2022-08-26T16:07:17.975Z,56.32
2022-08-26T16:09:49.056Z,56.04
2022-08-26T16:12:24.150Z,56.35
2022-08-26T16:14:54.070Z,56.52
2022-08-26T16:17:26.355Z,57.15
2022-08-26T16:19:56.278Z,56.96
2022-08-26T16:22:27.239Z,56.97
2022-08-26T16:24:59.628Z,57.37
2022-08-26T16:27:29.300Z,57.48
2022-08-26T16:29:58.931Z,57.00
2022-08-26T16:32:31.427Z,57.68
2022-08-26T16:35:01.585Z,57.98
2022-08-26T16:37:31.186Z,57.65
2022-08-26T16:40:00.906Z,58.37
2022-08-26T16:42:30.601Z,58.16
2022-08-26T16:45:00.268Z,58.47
2022-08-26T16:47:33.016Z,58.88
2022-08-26T16:50:02.949Z,58.88
2022-08-26T16:52:32.647Z,59.24
2022-08-26T16:55:02.522Z,59.34
2022-08-26T16:57:32.138Z,59.56
2022-08-26T17:00:01.828Z,59.16
2022-08-26T17:02:34.201Z,59.39
2022-08-26T17:05:03.860Z,59.05
2022-08-26T17:07:35.474Z,59.00
2022-08-26T17:10:05.138Z,59.46
2022-08-26T17:12:34.737Z,59.38
2022-08-26T17:15:04.570Z,59.33
2022-08-26T17:17:37.302Z,59.61
2022-08-26T17:20:12.645Z,59.50
2022-08-26T17:22:43.809Z,59.34
2022-08-26T17:25:15.025Z,59.27
2022-08-26T17:27:45.745Z,59.71
2022-08-26T17:30:17.260Z,59.49
2022-08-26T17:32:50.130Z,59.93
2022-08-26T17:35:19.777Z,59.96
2022-08-26T17:37:49.404Z,59.63
2022-08-26T17:40:25.212Z,60.18
2022-08-26T17:42:54.910Z,60.10
2022-08-26T17:45:24.934Z,60.04
2022-08-26T17:47:57.637Z,60.50
2022-08-26T17:50:27.261Z,60.49
2022-08-26T17:52:58.261Z,60.52
2022-08-26T17:55:28.058Z,60.93
2022-08-26T17:57:57.880Z,60.92
2022-08-26T18:00:29.205Z,60.77
2022-08-26T18:03:01.479Z,61.25
2022-08-26T18:05:31.272Z,61.42
2022-08-26T18:08:01.010Z,61.06
2022-08-26T18:10:31.422Z,61.48
2022-08-26T18:13:01.369Z,61.32
2022-08-26T18:15:31.096Z,61.34
2022-08-26T18:18:03.325Z,61.71
2022-08-26T18:20:32.945Z,61.60
2022-08-26T18:23:02.552Z,61.69
2022-08-26T18:25:32.197Z,61.56
2022-08-26T18:28:01.902Z,62.14
2022-08-26T18:30:31.569Z,62.19
2022-08-26T18:33:04.425Z,62.03
2022-08-26T18:35:34.112Z,62.33
2022-08-26T18:38:11.322Z,62.47
2022-08-26T18:40:42.280Z,62.55
2022-08-26T18:43:12.297Z,62.25
2022-08-26T18:45:41.972Z,62.22
2022-08-26T18:48:14.718Z,62.52
2022-08-26T18:50:47.330Z,62.96
2022-08-26T18:53:17.628Z,62.95
2022-08-26T18:55:47.294Z,62.73
2022-08-26T18:58:16.924Z,63.32
2022-08-26T19:00:46.557Z,63.11
2022-08-26T19:03:19.271Z,63.04
2022-08-26T19:05:49.102Z,63.18
2022-08-26T19:08:18.736Z,63.33
2022-08-26T19:10:48.449Z,63.28
2022-08-26T19:13:18.233Z,63.41
2022-08-26T19:15:48.474Z,63.79
2022-08-26T19:18:20.726Z,63.77
2022-08-26T19:20:50.598Z,63.56
2022-08-26T19:23:31.459Z,64.08
2022-08-26T19:26:02.099Z,63.96
2022-08-26T19:28:31.775Z,64.24
2022-08-26T19:31:01.691Z,64.07
2022-08-26T19:33:33.928Z,64.18
2022-08-26T19:36:06.318Z,64.41
2022-08-26T19:38:36.612Z,64.30
2022-08-26T19:41:06.368Z,64.29
2022-08-26T19:43:35.992Z,64.49
2022-08-26T19:46:12.837Z,64.87
2022-08-26T19:48:45.822Z,64.75
2022-08-26T19:51:16.363Z,64.95
2022-08-26T19:53:46.361Z,64.71
2022-08-26T19:56:16.536Z,64.76
2022-08-26T19:58:46.830Z,64.89
2022-08-26T20:01:17.940Z,65.05
2022-08-26T20:03:50.640Z,64.88
2022-08-26T20:06:21.209Z,65.19
2022-08-26T20:08:52.128Z,65.07
2022-08-26T20:11:26.046Z,65.01
2022-08-26T20:13:57.168Z,64.98
2022-08-26T20:16:26.816Z,64.94
2022-08-26T20:19:11.589Z,65.32
2022-08-26T20:21:43.150Z,65.57
2022-08-26T20:24:14.606Z,65.16
2022-08-26T20:26:46.393Z,65.35
2022-08-26T20:29:18.265Z,65.72
2022-08-26T20:31:48.150Z,65.50
2022-08-26T20:34:21.207Z,65.95
2022-08-26T20:36:52.244Z,65.90
2022-08-26T20:39:23.604Z,66.05
2022-08-26T20:41:53.302Z,65.92
2022-08-26T20:44:22.909Z,65.85
2022-08-26T20:46:52.549Z,66.44
2022-08-26T20:49:25.010Z,66.33
2022-08-26T20:51:54.756Z,66.70
2022-08-26T20:54:28.526Z,66.74
2022-08-26T20:56:58.168Z,66.73
2022-08-26T20:59:28.708Z,66.99
2022-08-26T21:01:58.313Z,67.03
2022-08-26T21:04:30.623Z,66.92
2022-08-26T21:07:00.275Z,66.88
2022-08-26T21:09:30.279Z,67.25
2022-08-26T21:12:00.352Z,67.10
2022-08-26T21:14:29.943Z,67.61
2022-08-26T21:16:59.605Z,67.26
2022-08-26T21:19:31.860Z,67.77
2022-08-26T21:22:01.709Z,67.71
2022-08-26T21:24:31.385Z,67.65
2022-08-26T21:27:01.109Z,68.26
2022-08-26T21:29:30.730Z,67.66
2022-08-26T21:32:00.381Z,68.03
2022-08-26T21:34:32.625Z,68.18
2022-08-26T21:37:02.224Z,67.99
2022-08-26T21:39:38.570Z,68.26
2022-08-26T21:42:09.654Z,68.08
2022-08-26T21:44:39.276Z,68.46
2022-08-26T21:47:09.389Z,68.11
2022-08-26T21:49:44.123Z,68.58
2022-08-26T21:52:14.302Z,68.63
2022-08-26T21:54:49.313Z,69.29
2022-08-26T21:57:19.700Z,69.17
2022-08-26T21:59:49.292Z,69.64
2022-08-26T22:02:19.053Z,70.04
2022-08-26T22:04:51.597Z,69.99
2022-08-26T22:07:21.854Z,70.40
2022-08-26T22:09:51.500Z,70.68
2022-08-26T22:12:21.138Z,71.21
2022-08-26T22:14:50.748Z,71.91
2022-08-26T22:17:22.570Z,72.30
2022-08-26T22:19:55.172Z,72.72
2022-08-26T22:22:28.611Z,73.23
2022-08-26T22:24:58.222Z,73.40
2022-08-26T22:27:28.147Z,74.10
2022-08-26T22:29:57.856Z,74.30
2022-08-26T22:32:27.493Z,74.44
2022-08-26T22:34:59.697Z,74.61
2022-08-26T22:37:29.450Z,74.63
2022-08-26T22:39:59.193Z,74.10
2022-08-26T22:42:28.993Z,74.11
2022-08-26T22:44:58.638Z,74.67
2022-08-26T22:47:28.374Z,74.13
2022-08-26T22:50:01.609Z,74.98
2022-08-26T22:52:31.301Z,74.73
2022-08-26T22:55:00.927Z,74.68
2022-08-26T22:57:30.669Z,74.83
2022-08-26T23:00:00.565Z,75.11
2022-08-26T23:02:30.270Z,75.46
2022-08-26T23:05:02.505Z,75.06
2022-08-26T23:07:32.116Z,75.37
2022-08-26T23:10:01.625Z,75.37
2022-08-26T23:12:31.446Z,75.65
2022-08-26T23:15:01.300Z,76.05
2022-08-26T23:17:30.869Z,76.33
2022-08-26T23:20:02.998Z,76.35
2022-08-26T23:22:32.530Z,76.85
2022-08-26T23:25:04.534Z,76.46
2022-08-26T23:27:38.159Z,76.92
2022-08-26T23:30:08.709Z,77.08
2022-08-26T23:32:38.309Z,77.36
2022-08-26T23:35:09.508Z,77.62
2022-08-26T23:37:41.753Z,77.09
2022-08-26T23:40:14.539Z,77.36
2022-08-26T23:42:44.136Z,77.66
2022-08-26T23:45:18.377Z,78.06
2022-08-26T23:47:48.463Z,77.79
2022-08-26T23:50:21.067Z,78.40
2022-08-26T23:53:06.202Z,78.44
2022-08-26T23:55:36.472Z,78.38
2022-08-26T23:58:06.152Z,78.32
